MKJPTNCM

Guest
Details From MKJP - Norman Manley Intl
To TNCM - St Maarten - Princess Juliana Intl
Flight Number -
Tags Generated
Created
Modified
Stats Distance 781 nm / 1,447 km
Max Altitude 0 ft / 0 m
Waypoints 5
Social Downloads 3
Likes 0
Share VATSIM

Download

Looking for another format? Having issues loading an existing format? Contact us
Advertisement - Login to hide

Notes

Generated

Route

MKJP KENOK APPOL PJM02 TNCM

ID Type Via Altitude Latitude Longitude Leg Dist Tot Dist Heading (true) Name
O MKJP APT - 0 ft / 0 m 17.94026˚ -76.79945˚ - 0 nm - -
KENOK FIX - 0 ft / 0 m 18.13561˚ -71.90033˚ 280 nm 280 nm 87° / 88° -
APPOL FIX - 0 ft / 0 m 18.08123˚ -67.56130˚ 247 nm 527 nm 90° / 91° -
PJM02 FIX - 0 ft / 0 m 18.03461˚ -63.15309˚ 251 nm 779 nm 90° / 91° -
O TNCM APT - 0 ft / 0 m 18.03937˚ -63.11961˚ 1 nm 781 nm 81° / 82° -

Altitude Profile

Advertisement - Login to hide

Weather


0- 5 10 15 20 25 30 35+ Temperature / ° C

Clouds and Precipitation
Forecast for 2018-05-20 12:00 UTC. Updated 3 hours ago

Ground ~20,000 ft ~40,000 ft Winds

MKJP

Details ICAO MKJP (KIN)
Name Norman Manley Intl
Region Jamaica
Timezone Unknown (UTC+0.0)
Stats Elevation 10 ft / 3 m (AMSL)
Location 17.935665° -76.787560°
Runways 1
Magnetic Variation 7.589° W

METAR

MKJP 201400Z 13015KT 9999 FEW022 29/25 Q1013

Decode

TAF

TAF MKJP 201115Z 2012/2112 11012KT 9999 FEW022 BECMG 2014/2016 13022KT PROB40 TEMPO 2017/2024 8000 SHRA SCT020 FEW022CB SCT034 BECMG 2102/2104 11012KT

Decode

Departure Runways

ID Width Length Bearing (true) Bearing (mag) Surface Threshold Offset Overrun Length
12 150 ft / 46 m 8,912 ft / 2,717 m 112.09° 119.68° Asphalt 0 ft / 0 m 0 ft / 0 m
30 150 ft / 46 m 8,912 ft / 2,717 m 292.10° 299.69° Asphalt 0 ft / 0 m 0 ft / 0 m

TNCM

Details ICAO TNCM (SXM)
Name St Maarten - Princess Juliana Intl
Region Caribbean Netherlands, Aruba, Curaçao, Sint Maarten
Timezone Unknown (UTC+0.0)
Stats Elevation 12 ft / 4 m (AMSL)
Location 18.040889° -63.108974°
Runways 1
Magnetic Variation 14.337° W

METAR

TNCM 201400Z 09013KT 050V140 9999 SCT018 28/21 Q1019 A3009 NOSIG

Decode

TAF

TAF TAF TNCM 201132Z 2012/2112 07010KT P6SM SCT018 FM201300 09015KT P6SM VCSH SCT020 FM202300 09010KT P6SM SCT018

Decode

Destination Runways

ID Width Length Bearing (true) Bearing (mag) Surface Threshold Offset Overrun Length
10 148 ft / 45 m 7,464 ft / 2,275 m 81.43° 95.77° Asphalt 0 ft / 0 m 151 ft / 46 m
28 148 ft / 45 m 7,464 ft / 2,275 m 261.44° 275.78° Asphalt 397 ft / 121 m 0 ft / 0 m

Popular Alternatives